Terminal Aerodrome Forecast
Issued by NWS Paducah, KY

Home | Current Version | Previous Version | Text Only | Print | Product List | Glossary On
Versions: 1 2 3 4 5 6 7 8 9 10 11 12 13 14 15 16 17 18 19 20 21 22
000
FTUS43 KPAH 221200 AAB
TAFPAH
TAF AMD
KPAH 221200Z 2212/2312 23005KT 5SM BR OVC009
     FM221400 VRB04KT P6SM FEW009 SCT035
     FM221900 31006KT P6SM BKN070
     FM231000 VRB02KT 4SM BR SKC=

USA.gov is the U.S. government's official web portal to all federal, state and local government web resources and services.